createdAt,value
2017-07-04T00:01:34.602Z,9
2017-07-04T00:11:34.625Z,8
2017-07-04T00:21:34.631Z,7
2017-07-04T00:31:35.475Z,10
2017-07-04T00:41:39.389Z,8
2017-07-04T00:51:34.778Z,10
2017-07-04T01:01:34.572Z,12
2017-07-04T01:11:34.744Z,12
2017-07-04T01:21:34.708Z,12
2017-07-04T01:31:34.727Z,9
2017-07-04T01:41:34.645Z,11
2017-07-04T01:51:34.620Z,13
2017-07-04T02:01:34.718Z,16
2017-07-04T02:11:34.722Z,15
2017-07-04T02:21:34.671Z,13
2017-07-04T02:31:34.732Z,12
2017-07-04T02:41:34.890Z,11
2017-07-04T02:51:34.724Z,12
2017-07-04T03:01:34.906Z,13
2017-07-04T03:11:34.704Z,14
2017-07-04T03:21:35.330Z,12
2017-07-04T03:31:34.676Z,15
2017-07-04T03:41:34.884Z,15
2017-07-04T03:51:34.788Z,22
2017-07-04T04:01:35.588Z,15
2017-07-04T04:11:34.871Z,17
2017-07-04T04:21:34.744Z,18
2017-07-04T04:31:34.849Z,17
2017-07-04T04:41:35.050Z,21
2017-07-04T04:51:34.942Z,15
2017-07-04T05:01:36.035Z,20
2017-07-04T05:11:35.222Z,17
2017-07-04T05:21:34.995Z,24
2017-07-04T05:31:35.231Z,15
2017-07-04T05:41:35.328Z,10
2017-07-04T05:51:34.928Z,11
2017-07-04T06:01:34.980Z,11
2017-07-04T06:11:35.014Z,13
2017-07-04T06:21:35.051Z,9
2017-07-04T06:31:35.107Z,11
2017-07-04T06:41:35.021Z,10
2017-07-04T06:51:34.910Z,11
2017-07-04T07:01:34.989Z,8
2017-07-04T07:11:35.008Z,10
2017-07-04T07:21:34.885Z,6
2017-07-04T07:31:35.042Z,8
2017-07-04T07:41:34.961Z,11
2017-07-04T07:51:35.102Z,10
2017-07-04T08:01:35.030Z,9
2017-07-04T08:11:35.035Z,10
2017-07-04T08:21:35.210Z,7
2017-07-04T08:31:35.060Z,8
2017-07-04T08:41:35.014Z,9
2017-07-04T08:51:35.023Z,11
2017-07-04T09:01:35.053Z,9
2017-07-04T09:11:35.056Z,8
2017-07-04T09:21:35.017Z,8
2017-07-04T09:31:35.029Z,8
2017-07-04T09:41:35.125Z,7
2017-07-04T09:51:35.401Z,6
2017-07-04T10:01:35.878Z,6
2017-07-04T10:11:35.115Z,6
2017-07-04T10:21:35.032Z,8
2017-07-04T10:31:35.724Z,6
2017-07-04T10:41:35.414Z,6
2017-07-04T10:51:35.107Z,8
2017-07-04T11:01:35.671Z,5
2017-07-04T11:11:35.337Z,7
2017-07-04T11:21:35.056Z,6
2017-07-04T11:31:35.069Z,5
2017-07-04T11:41:35.068Z,5
2017-07-04T11:51:35.189Z,5
2017-07-04T12:01:35.333Z,5
2017-07-04T12:11:35.241Z,4
2017-07-04T12:21:35.040Z,7
2017-07-04T12:31:35.087Z,5
2017-07-04T12:41:35.065Z,6
2017-07-04T12:51:35.139Z,5
2017-07-04T13:01:35.373Z,5
2017-07-04T13:11:35.258Z,4
2017-07-04T13:21:36.165Z,5
2017-07-04T13:31:35.381Z,3
2017-07-04T13:41:35.324Z,8
2017-07-04T13:51:35.141Z,11
2017-07-04T14:01:35.095Z,6
2017-07-04T14:11:35.461Z,4
2017-07-04T14:21:35.352Z,5
2017-07-04T14:31:35.113Z,4
2017-07-04T14:41:35.110Z,2
2017-07-04T14:51:35.152Z,3
2017-07-04T15:01:35.315Z,4
2017-07-04T15:11:35.167Z,3
2017-07-04T15:21:35.101Z,4
2017-07-04T15:31:35.174Z,4
2017-07-04T15:41:35.110Z,2
2017-07-04T15:51:35.209Z,2
2017-07-04T16:01:35.100Z,2
2017-07-04T16:11:35.103Z,2
2017-07-04T16:21:35.162Z,2
2017-07-04T16:31:35.167Z,2
2017-07-04T16:41:35.189Z,2
2017-07-04T16:51:35.153Z,2
2017-07-04T17:01:35.192Z,5
2017-07-04T17:11:35.115Z,2
2017-07-04T17:21:35.199Z,2
2017-07-04T17:31:35.189Z,2
2017-07-04T17:41:35.212Z,1
2017-07-04T17:51:35.127Z,2
2017-07-04T18:01:35.473Z,2
2017-07-04T18:11:35.291Z,4
2017-07-04T18:21:37.294Z,2
2017-07-04T18:31:35.637Z,5
2017-07-04T18:41:35.302Z,4
2017-07-04T18:51:35.197Z,6
2017-07-04T19:01:37.155Z,8
2017-07-04T19:11:35.176Z,4
2017-07-04T19:21:35.146Z,2
2017-07-04T19:31:35.182Z,2
2017-07-04T19:41:35.724Z,3
2017-07-04T19:51:35.272Z,2
2017-07-04T20:01:36.248Z,2
2017-07-04T20:11:35.525Z,2
2017-07-04T20:21:35.298Z,4
2017-07-04T20:31:35.422Z,2
2017-07-04T20:41:35.616Z,1
2017-07-04T20:51:35.180Z,3
2017-07-04T21:01:35.649Z,3
2017-07-04T21:11:35.580Z,4
2017-07-04T21:21:35.180Z,3
2017-07-04T21:31:35.328Z,2
2017-07-04T21:41:35.231Z,1
2017-07-04T21:51:35.295Z,2
2017-07-04T22:01:35.323Z,2
2017-07-04T22:11:35.310Z,2
2017-07-04T22:21:35.370Z,3
2017-07-04T22:31:35.363Z,3
2017-07-04T22:41:35.662Z,2
2017-07-04T22:51:35.244Z,3
2017-07-04T23:01:35.898Z,2
2017-07-04T23:11:35.399Z,3
2017-07-04T23:21:36.196Z,3
2017-07-04T23:31:35.754Z,2
2017-07-04T23:41:35.199Z,4
2017-07-04T23:51:35.357Z,3
